Overview Statistics Trail Chart Weather Telemetry Raw packets
 

This is the latest recevied weather packets stored in our database for station/object Ummendorf. If no packets are shown the sender has not sent any weather packets the latest 10 day(s).

<< 1 2 3 4 5 6 >>
Time Temp. Humidity Pressure Rain* Wind** Luminosity Snow
1788489130 15° C 61% 1022.1 hPa 0 mm - - -
1788487330 15° C 61% 1022.2 hPa 0 mm - - -
1788485530 15° C 62% 1022.4 hPa 0 mm - - -
1788483730 15° C 62% 1022.7 hPa 0 mm - - -
1788481931 15.56° C 61% 1022.7 hPa 0 mm - - -
1788480131 15.56° C 60% 1022.8 hPa 0 mm - - -
1788478331 16.11° C 60% 1022.9 hPa 0 mm - - -
1788476531 16.11° C 59% 1023 hPa 0 mm - - -
1788474731 16.67° C 58% 1023 hPa 0 mm - - -
1788472931 16.67° C 57% 1023.2 hPa 0 mm - - -
1788471131 16.67° C 56% 1023.2 hPa 0 mm - - -
1788469331 17.22° C 56% 1022.9 hPa 0 mm - - -
1788467531 17.22° C 55% 1023.2 hPa 0 mm - - -
1788465730 17.78° C 54% 1023 hPa 0 mm - - -
1788463931 18.89° C 52% 1022.6 hPa 0 mm - - -
1788462131 20° C 49% 1022.4 hPa 0 mm - - -
1788460330 21.11° C 46% 1022.1 hPa 0 mm - - -
1788458531 22.22° C 42% 1022 hPa 0 mm - - -
1788456731 22.78° C 39% 1021.7 hPa 0 mm - - -
1788454941 23.33° C 38% 1021.5 hPa 0 mm - - -
1788453130 23.89° C 35% 1021.6 hPa 0 mm - - -
1788451331 24.44° C 34% 1021.7 hPa 0 mm - - -
1788449530 24.44° C 35% 1021.8 hPa 0 mm - - -
1788447730 25° C 35% 1021.8 hPa 0 mm - - -
1788445930 25.56° C 36% 1021.8 hPa 0 mm - - -

* Rain since midnight (hover to see other rain measurements)
** Current wind speed in m/s (hover to see current wind gust speed)